Branchville, NJ

2:12 PM EDT on May 28, 2015 (GMT -0400)
Sussex | | Change Station
CLOSE
Current Station
Airport
Location: Sussex,
Elevation: 420 ft
Nearby Weather Stations

Elev 420 ft 41.20 °N, 74.63 °W | Updated 19 minutes ago

Overcast
Overcast
84 °F
Feels Like 86 °F
N
7
Wind Variable Wind from Variable

Today
High -- | Low -- °F
--% Chance of Precip.
Yesterday
High -- | Low -- °F
Precip. -- in
5:30 AM 8:22 PM
Waxing Gibbous, 77% visible
Pressure 30.14 in
Visibility 10.0 miles
Clouds Scattered Clouds 4700 ft
Mostly Cloudy 6000 ft
Mostly Cloudy 8000 ft
Heat Index 86 °F
Dew Point 65 °F
Humidity 53%
Rainfall 0.00 in
Snow Depth Not available.
UV 6 out of 12
Pollen 8.50 out of 12
Air Quality Not available.
Flu Activity Sporadic
METAR KFWN 281753Z AUTO VRB06KT 10SM SCT047 BKN060 BKN080 29/18 A3014 RMK AO2 SLP204 T02890183 10294 20211 56007

More Conditions Fewer Conditions

Pressure 30.14 in
Visibility 10.0 miles
Clouds Scattered Clouds 4700 ft
Mostly Cloudy 6000 ft
Mostly Cloudy 8000 ft
Heat Index 86 °F
Dew Point 65 °F
Humidity 53%
Rainfall 0.00 in
Snow Depth Not available.
UV 6 out of 12
Pollen 8.50 out of 12
Air Quality Not available.
Flu Activity Sporadic
METAR KFWN 281753Z AUTO VRB06KT 10SM SCT047 BKN060 BKN080 29/18 A3014 RMK AO2 SLP204 T02890183 10294 20211 56007

More Conditions Fewer Conditions

10-Day Weather Forecast

Almanac

Astronomy

May. 28, 2015 Rise Set
Actual Time
Civil Twilight
Nautical Twilight
Astronomical Twilight
Moon
Length of Visible Light
Length of Day
Tomorrow will be .
, % of the Moon is Illuminated

Today's Extremes

State Highs State Lows

Community

WunderPhotos

Upload Photos

1,825,009 photos uploaded!

WunderBlogs® & News

Nearby

Air Quality

  Air Quality AQ Index Pollutant
Not available.

Snow Depth

Station Depth Elevation

Earthquake Activity

City Distance Mag. Time & Date
Minimum magnitude displayed is 2.5.

Coastal Water Temperatures

Place Temperature

Stations

Nearby Weather Stations

Station Location Temp. Windchill Dew Point Humidity Wind Precip. Elev Updated Type
                   
Severe Thunderstorm Watch
Statement as of 2:03 PM EDT on May 28, 2015

Severe Thunderstorm Watch 233 remains in effect until 700 PM EDT

NJ
. New Jersey counties included are

Bergen Essex Hudson
Morris Passaic Sussex
eastern Union Warren